CheckWX is a tool to help pilots better visualize weather data.  It is not intended as a substitute for an official pre-flight weather briefing.

00:08:41 UTC

KCGI TAF
Cape Girardeau Regional Airport
Cape Girardeau, Missouri, USA
KCGI 182320Z 1900/1924 13005KT P6SM SKC FM191300 VRB03KT P6SM FEW250 FM191600 18005KT P6SM FEW250 FM192200 VRB04KT P6SM FEW200

Oct-19@
00:00 UTC

Oct-19 @ 00:00 UTC

Oct-19@
13:00 UTC

Oct-19 @ 13:00 UTC

KCGI 182320Z 1900/1924 13005KT P6SM SKC
Wind
  • 130° at 5 KTS
Cloud Levels
  • Clear skies

Oct-19@
13:00 UTC

Oct-19 @ 13:00 UTC

Oct-19@
16:00 UTC

Oct-19 @ 16:00 UTC

FM191300 VRB03KT P6SM FEW250

From

From Standard forecast or significant change

Wind
  • Variable at 3 KTS
Cloud Levels
  • Few at 25,000' AGL

Oct-19@
16:00 UTC

Oct-19 @ 16:00 UTC

Oct-19@
22:00 UTC

Oct-19 @ 22:00 UTC

FM191600 18005KT P6SM FEW250

From

From Standard forecast or significant change

Wind
  • 180° at 5 KTS
Cloud Levels
  • Few at 25,000' AGL

Oct-19@
22:00 UTC

Oct-19 @ 22:00 UTC

Oct-20@
00:00 UTC

Oct-20 @ 00:00 UTC

FM192200 VRB04KT P6SM FEW200

From

From Standard forecast or significant change

Wind
  • Variable at 4 KTS
Cloud Levels
  • Few at 20,000' AGL